createdAt,value
2022-07-26T00:01:27.991Z,101348.06
2022-07-26T00:04:01.012Z,101352.72
2022-07-26T00:06:31.803Z,101372.78
2022-07-26T00:09:04.934Z,101427.91
2022-07-26T00:11:34.559Z,101449.72
2022-07-26T00:14:04.894Z,101480.13
2022-07-26T00:16:37.458Z,101487.50
2022-07-26T00:19:11.735Z,101501.16
2022-07-26T00:21:43.413Z,101521.75
2022-07-26T00:24:18.271Z,101501.16
2022-07-26T00:26:48.470Z,101497.38
2022-07-26T00:29:16.841Z,101456.00
2022-07-26T00:31:47.966Z,101449.81
2022-07-26T00:34:15.761Z,101435.97
2022-07-26T00:36:46.032Z,101505.53
2022-07-26T00:39:19.965Z,101603.66
2022-07-26T00:41:48.974Z,101648.94
2022-07-26T00:44:17.838Z,101682.94
2022-07-26T00:46:52.422Z,101725.63
2022-07-26T00:49:23.344Z,101701.59
2022-07-26T00:51:53.082Z,101685.44
2022-07-26T00:54:26.895Z,101698.03
2022-07-26T00:56:58.549Z,101711.56
2022-07-26T00:59:27.544Z,101739.28
2022-07-26T01:01:56.337Z,101750.44
2022-07-26T01:04:28.757Z,101755.75
2022-07-26T01:07:00.772Z,101734.28
2022-07-26T01:09:36.268Z,101741.34
2022-07-26T01:12:06.115Z,101736.78
2022-07-26T01:14:36.564Z,101695.50
2022-07-26T01:17:09.519Z,101687.28
2022-07-26T01:19:38.148Z,101668.22
2022-07-26T01:22:14.342Z,101661.06
2022-07-26T01:24:44.518Z,101619.16
2022-07-26T01:27:15.638Z,101645.25
2022-07-26T01:29:43.869Z,101631.94
2022-07-26T01:32:15.732Z,101583.63
2022-07-26T01:34:44.911Z,101572.50
2022-07-26T01:37:18.898Z,101587.41
2022-07-26T01:39:47.931Z,101612.22
2022-07-26T01:42:18.117Z,101620.00
2022-07-26T01:44:50.731Z,101654.66
2022-07-26T01:47:21.511Z,101672.25
2022-07-26T01:49:49.842Z,101701.53
2022-07-26T01:52:24.308Z,101767.22
2022-07-26T01:54:53.638Z,101790.72
2022-07-26T01:57:23.717Z,101775.00
2022-07-26T01:59:51.725Z,101768.28
2022-07-26T02:02:21.157Z,101811.56
2022-07-26T02:05:04.654Z,101827.00
2022-07-26T02:07:44.457Z,101856.66
2022-07-26T02:10:18.847Z,101829.91
2022-07-26T02:12:46.873Z,101836.28
2022-07-26T02:15:21.680Z,101846.25
2022-07-26T02:17:53.991Z,101839.38
2022-07-26T02:20:24.152Z,101835.03
2022-07-26T02:22:53.422Z,101856.69
2022-07-26T02:25:23.252Z,101851.34
2022-07-26T02:27:56.415Z,101828.47
2022-07-26T02:30:30.265Z,101845.00
2022-07-26T02:33:03.701Z,101875.63
2022-07-26T02:35:34.404Z,101888.38
2022-07-26T02:38:05.645Z,101886.59
2022-07-26T02:40:35.388Z,101888.66
2022-07-26T02:43:05.738Z,101902.19
2022-07-26T02:45:33.806Z,101886.31
2022-07-26T02:48:06.601Z,101877.72
2022-07-26T02:50:36.560Z,101899.16
2022-07-26T02:53:05.751Z,101896.81
2022-07-26T02:55:33.618Z,101887.97
2022-07-26T02:58:01.234Z,101872.03
2022-07-26T03:00:29.248Z,101846.25
2022-07-26T03:02:57.642Z,101806.28
2022-07-26T03:05:25.417Z,101817.28
2022-07-26T03:07:55.328Z,101809.34
2022-07-26T03:10:24.349Z,101796.19
2022-07-26T03:12:51.934Z,101815.22
2022-07-26T03:15:20.293Z,101779.78
2022-07-26T03:17:47.965Z,101797.16
2022-07-26T03:20:15.650Z,101803.59
2022-07-26T03:22:44.390Z,101816.31
2022-07-26T03:25:12.078Z,101829.75
2022-07-26T03:27:41.257Z,101775.22
2022-07-26T03:30:10.195Z,101743.88
2022-07-26T03:32:37.824Z,101722.50
2022-07-26T03:35:06.483Z,101707.25
2022-07-26T03:37:45.864Z,101684.56
2022-07-26T03:40:15.010Z,101611.81
2022-07-26T03:42:44.390Z,101555.09
2022-07-26T03:45:13.431Z,101492.25
2022-07-26T03:47:41.254Z,101443.44
2022-07-26T03:50:10.972Z,101376.91
2022-07-26T03:52:38.713Z,101341.38
2022-07-26T03:55:27.076Z,101278.25
2022-07-26T03:57:55.081Z,101235.47
2022-07-26T04:00:22.820Z,101170.44
2022-07-26T04:02:50.784Z,101125.06
2022-07-26T04:05:23.696Z,101066.50
2022-07-26T04:07:53.983Z,101018.97
2022-07-26T04:10:23.152Z,101026.63
2022-07-26T04:12:51.335Z,100994.34
2022-07-26T04:15:21.430Z,100976.41
2022-07-26T04:17:50.320Z,100955.38
2022-07-26T04:20:18.265Z,100982.91
2022-07-26T04:22:46.533Z,100979.22
2022-07-26T04:25:14.396Z,100980.97
2022-07-26T04:27:42.011Z,100956.88
2022-07-26T04:30:15.029Z,100936.47
2022-07-26T04:32:46.503Z,100979.03
2022-07-26T04:35:17.064Z,100967.13
2022-07-26T04:37:48.823Z,100937.91
2022-07-26T04:40:21.086Z,100942.66
2022-07-26T04:42:51.326Z,100940.84
2022-07-26T04:45:22.531Z,100914.06
2022-07-26T04:47:51.898Z,100956.97
2022-07-26T04:50:20.644Z,101000.22
2022-07-26T04:52:48.598Z,100985.41
2022-07-26T04:55:17.795Z,100952.16
2022-07-26T04:57:47.618Z,100829.50
2022-07-26T05:00:22.965Z,100779.09
2022-07-26T05:02:55.470Z,100689.72
2022-07-26T05:05:23.787Z,100608.72
2022-07-26T05:07:54.916Z,100533.78
2022-07-26T05:10:24.853Z,100492.97
2022-07-26T05:12:52.922Z,100433.84
2022-07-26T05:15:20.919Z,100540.41
2022-07-26T05:17:50.154Z,100535.59
2022-07-26T05:20:20.533Z,100524.34
2022-07-26T05:22:48.510Z,100531.75
2022-07-26T05:25:16.453Z,100626.13
2022-07-26T05:27:44.916Z,100612.41
2022-07-26T05:30:13.211Z,100495.88
2022-07-26T05:32:41.212Z,100492.59
2022-07-26T05:35:10.242Z,100371.81
2022-07-26T05:37:40.906Z,100465.56
2022-07-26T05:40:10.495Z,100337.19
2022-07-26T05:42:40.104Z,100284.03
2022-07-26T05:45:08.893Z,100271.53
2022-07-26T05:47:37.675Z,100395.66
2022-07-26T05:50:07.564Z,100194.31
2022-07-26T05:52:35.769Z,100165.47
2022-07-26T05:55:07.646Z,100083.00
2022-07-26T05:57:35.751Z,100066.53
2022-07-26T06:00:04.723Z,100153.63
2022-07-26T06:02:34.607Z,100147.66
2022-07-26T06:05:02.477Z,100189.16
2022-07-26T06:07:30.732Z,100032.78
2022-07-26T06:09:58.713Z,100086.59
2022-07-26T06:12:30.134Z,100019.78
2022-07-26T06:14:57.861Z,100033.94
2022-07-26T06:17:30.205Z,100244.56
2022-07-26T06:19:59.053Z,100100.91
2022-07-26T06:22:26.985Z,100092.84
2022-07-26T06:24:54.786Z,100115.84
2022-07-26T06:27:22.548Z,100220.22
2022-07-26T06:29:52.678Z,99983.16
2022-07-26T06:32:20.490Z,100143.63
2022-07-26T06:34:49.834Z,100093.53
2022-07-26T06:37:19.272Z,100112.25
2022-07-26T06:39:47.395Z,100082.13
2022-07-26T06:42:15.301Z,99995.66
2022-07-26T06:44:43.181Z,100052.34
2022-07-26T06:47:12.338Z,99829.00
2022-07-26T06:49:40.117Z,99730.63
2022-07-26T06:52:07.834Z,99719.44
2022-07-26T06:54:35.546Z,99814.06
2022-07-26T06:57:03.285Z,99800.25
2022-07-26T06:59:30.991Z,99849.28
2022-07-26T07:02:00.502Z,99924.44
2022-07-26T07:04:31.657Z,99890.28
2022-07-26T07:07:04.530Z,99929.47
2022-07-26T07:09:34.170Z,99987.00
2022-07-26T07:12:09.449Z,99926.31
2022-07-26T07:14:37.851Z,99880.75
2022-07-26T07:17:12.206Z,99814.81
2022-07-26T07:19:43.924Z,99840.22
2022-07-26T07:22:12.843Z,99859.16
2022-07-26T07:24:41.059Z,99900.13
2022-07-26T07:27:09.177Z,99919.91
2022-07-26T07:29:38.599Z,99957.75
2022-07-26T07:32:08.936Z,99931.41
2022-07-26T07:34:48.363Z,99988.59
2022-07-26T07:37:16.227Z,99993.84
2022-07-26T07:39:43.901Z,99976.81
2022-07-26T07:42:16.622Z,99958.97
2022-07-26T07:44:44.719Z,99980.03
2022-07-26T07:47:12.445Z,100070.44
2022-07-26T07:49:40.108Z,100171.22
2022-07-26T07:52:09.097Z,100079.56
2022-07-26T07:54:36.734Z,100060.78
2022-07-26T07:57:04.589Z,100138.16
2022-07-26T07:59:32.271Z,100021.75
2022-07-26T08:01:59.915Z,100024.03
2022-07-26T08:04:27.860Z,100042.81
2022-07-26T08:06:55.598Z,99932.13
2022-07-26T08:09:24.930Z,100045.00
2022-07-26T08:11:56.435Z,99834.91
2022-07-26T08:14:24.257Z,99869.69
2022-07-26T08:16:52.044Z,99935.66
2022-07-26T08:19:19.793Z,99799.25
2022-07-26T08:21:50.178Z,99937.41
2022-07-26T08:24:18.020Z,99778.94
2022-07-26T08:26:47.068Z,99811.72
2022-07-26T08:29:15.068Z,99829.00
2022-07-26T08:31:43.032Z,99851.72
2022-07-26T08:34:10.798Z,99733.06
2022-07-26T08:36:49.595Z,99631.53
2022-07-26T08:39:26.203Z,99678.66
2022-07-26T08:41:55.333Z,99742.25
2022-07-26T08:44:22.997Z,99823.09
2022-07-26T08:46:50.853Z,99867.00
2022-07-26T08:49:18.742Z,99997.13
2022-07-26T08:51:46.616Z,99990.38
2022-07-26T08:54:16.650Z,99998.25
2022-07-26T08:56:51.389Z,100024.88
2022-07-26T08:59:23.426Z,100056.22
2022-07-26T09:01:53.985Z,99987.13
2022-07-26T09:04:31.553Z,99908.16
2022-07-26T09:07:03.494Z,99970.47
2022-07-26T09:09:32.643Z,99820.03
2022-07-26T09:12:13.614Z,99755.22
2022-07-26T09:14:42.891Z,99826.28
2022-07-26T09:17:10.626Z,99815.72
2022-07-26T09:19:38.379Z,99767.41
2022-07-26T09:22:10.541Z,99805.88
2022-07-26T09:24:41.129Z,99753.94
2022-07-26T09:27:10.878Z,99843.25
2022-07-26T09:29:48.289Z,99870.47
2022-07-26T09:32:18.632Z,99885.25
2022-07-26T09:34:52.953Z,99896.72
2022-07-26T09:37:34.313Z,99908.53
2022-07-26T09:40:04.792Z,99938.50
2022-07-26T09:42:32.489Z,99996.31
2022-07-26T09:45:01.592Z,99985.00
2022-07-26T09:47:37.700Z,99996.84
2022-07-26T09:50:14.192Z,99914.28
2022-07-26T09:52:41.995Z,99863.81
2022-07-26T09:55:11.074Z,99974.22
2022-07-26T09:57:39.124Z,99960.78
2022-07-26T10:00:09.758Z,99941.97
2022-07-26T10:02:37.409Z,99844.13
2022-07-26T10:05:05.774Z,99820.66
2022-07-26T10:07:33.669Z,99839.56
2022-07-26T10:10:05.806Z,99805.34
2022-07-26T10:12:34.886Z,99811.41
2022-07-26T10:15:02.588Z,99843.81
2022-07-26T10:17:42.975Z,99820.63
2022-07-26T10:20:31.326Z,99846.72
2022-07-26T10:23:01.185Z,99838.16
2022-07-26T10:25:55.985Z,99918.66
2022-07-26T10:28:30.090Z,99933.78
2022-07-26T10:31:33.025Z,99908.28
2022-07-26T10:34:02.270Z,99900.34
2022-07-26T10:36:34.854Z,99894.56
2022-07-26T10:39:08.421Z,99834.00
2022-07-26T10:41:40.494Z,99821.41
2022-07-26T10:44:19.556Z,99910.59
2022-07-26T10:46:58.240Z,99976.00
2022-07-26T10:49:35.309Z,99921.44
2022-07-26T10:52:11.821Z,99858.59
2022-07-26T10:55:09.827Z,99868.09
2022-07-26T10:57:39.490Z,99769.25
2022-07-26T11:00:18.895Z,99839.63
2022-07-26T11:02:50.191Z,99845.78
2022-07-26T11:05:19.346Z,99894.00
2022-07-26T11:08:08.402Z,99916.75
2022-07-26T11:10:39.870Z,99933.44
2022-07-26T11:13:10.435Z,99918.00
2022-07-26T11:15:40.000Z,99944.25
2022-07-26T11:18:09.490Z,99994.69
2022-07-26T11:20:37.257Z,99983.88
2022-07-26T11:23:05.326Z,99989.00
2022-07-26T11:25:32.989Z,100107.53
2022-07-26T11:28:07.148Z,100119.75
2022-07-26T11:30:35.043Z,100224.56
2022-07-26T11:33:02.633Z,100240.72
2022-07-26T11:35:30.345Z,100298.53
2022-07-26T11:38:11.318Z,100235.81
2022-07-26T11:40:44.111Z,100298.69
2022-07-26T11:43:13.504Z,100318.50
2022-07-26T11:45:41.678Z,100259.06
2022-07-26T11:48:09.372Z,100257.31
2022-07-26T11:50:37.020Z,100234.09
2022-07-26T11:53:22.649Z,100313.03
2022-07-26T11:55:50.260Z,100272.81
2022-07-26T11:58:19.673Z,100295.47
2022-07-26T12:00:47.376Z,100343.66
2022-07-26T12:03:15.223Z,100343.34
2022-07-26T12:05:43.204Z,100254.84
2022-07-26T12:08:10.999Z,100305.66
2022-07-26T12:10:38.694Z,100345.28
2022-07-26T12:13:11.623Z,100333.50
2022-07-26T12:15:52.242Z,100401.63
2022-07-26T12:18:25.584Z,100407.69
2022-07-26T12:21:11.219Z,100447.16
2022-07-26T12:23:43.881Z,100490.81
2022-07-26T12:26:22.622Z,100518.66
2022-07-26T12:28:50.225Z,100548.63
2022-07-26T12:31:27.136Z,100573.47
2022-07-26T12:33:55.121Z,100584.34
2022-07-26T12:36:27.566Z,100610.47
2022-07-26T12:38:57.755Z,100617.56
2022-07-26T12:41:36.608Z,100626.00
2022-07-26T12:44:05.796Z,100623.44
2022-07-26T12:46:36.273Z,100605.50
2022-07-26T12:49:05.212Z,100602.84
2022-07-26T12:51:33.240Z,100623.44
2022-07-26T12:54:01.152Z,100617.59
2022-07-26T12:56:28.892Z,100607.34
2022-07-26T12:59:01.544Z,100603.66
2022-07-26T13:01:29.880Z,100588.69
2022-07-26T13:03:59.179Z,100521.03
2022-07-26T13:06:27.230Z,100631.44
2022-07-26T13:08:56.359Z,100614.19
2022-07-26T13:11:24.068Z,100625.00
2022-07-26T13:13:51.784Z,100628.81
2022-07-26T13:16:19.543Z,100613.09
2022-07-26T13:18:47.231Z,100615.81
2022-07-26T13:21:16.322Z,100615.50
2022-07-26T13:23:43.999Z,100599.41
2022-07-26T13:26:11.662Z,100535.13
2022-07-26T13:28:40.516Z,100627.88
2022-07-26T13:31:08.307Z,100598.00
2022-07-26T13:33:39.277Z,100536.59
2022-07-26T13:36:07.232Z,100584.00
2022-07-26T13:38:36.735Z,100626.94
2022-07-26T13:41:05.103Z,100638.53
2022-07-26T13:43:35.323Z,100585.78
2022-07-26T13:46:03.010Z,100559.59
2022-07-26T13:48:30.760Z,100540.63
2022-07-26T13:50:58.545Z,100593.53
2022-07-26T13:53:26.652Z,100586.91
2022-07-26T13:55:55.575Z,100484.47
2022-07-26T13:58:23.243Z,100467.91
2022-07-26T14:00:50.954Z,100468.50
2022-07-26T14:03:18.714Z,100433.09
2022-07-26T14:05:46.512Z,100455.25
2022-07-26T14:08:14.308Z,100411.97
2022-07-26T14:10:42.395Z,100408.06
2022-07-26T14:13:11.533Z,100424.59
2022-07-26T14:15:39.274Z,100401.78
2022-07-26T14:18:07.164Z,100399.88
2022-07-26T14:20:34.889Z,100397.63
2022-07-26T14:23:02.695Z,100428.13
2022-07-26T14:25:30.346Z,100441.97
2022-07-26T14:28:01.050Z,100408.78
2022-07-26T14:30:30.055Z,100427.50
2022-07-26T14:32:57.694Z,100461.44
2022-07-26T14:35:25.376Z,100425.69
2022-07-26T14:37:53.306Z,100434.59
2022-07-26T14:40:20.974Z,100378.03
2022-07-26T14:42:48.687Z,100457.81
2022-07-26T14:45:16.708Z,100426.41
2022-07-26T14:47:45.810Z,100375.59
2022-07-26T14:50:15.136Z,100327.84
2022-07-26T14:52:44.673Z,100313.22
2022-07-26T14:55:13.234Z,100327.88
2022-07-26T14:57:41.390Z,100283.84
2022-07-26T15:00:12.361Z,100259.13
2022-07-26T15:02:41.177Z,100247.97
2022-07-26T15:05:11.113Z,100223.41
2022-07-26T15:07:38.996Z,100149.09
2022-07-26T15:10:08.893Z,100123.56
2022-07-26T15:12:36.893Z,100158.78
2022-07-26T15:15:05.085Z,100064.34
2022-07-26T15:17:33.023Z,100035.25
2022-07-26T15:20:00.600Z,100064.44
2022-07-26T15:22:29.590Z,100026.81
2022-07-26T15:24:57.571Z,99998.78
2022-07-26T15:27:25.166Z,100005.69
2022-07-26T15:29:52.793Z,100003.00
2022-07-26T15:32:21.275Z,100041.84
2022-07-26T15:34:49.072Z,100060.88
2022-07-26T15:37:16.693Z,100055.78
2022-07-26T15:39:45.850Z,100078.00
2022-07-26T15:42:15.176Z,100082.53
2022-07-26T15:44:43.293Z,100000.84
2022-07-26T15:47:11.725Z,100015.50
2022-07-26T15:49:40.859Z,99987.78
2022-07-26T15:52:11.241Z,99994.78
2022-07-26T15:54:39.045Z,99960.16
2022-07-26T15:57:08.041Z,100013.41
2022-07-26T15:59:35.891Z,100008.81
2022-07-26T16:02:06.183Z,100008.81
2022-07-26T16:04:33.860Z,100024.81
2022-07-26T16:07:01.540Z,100034.03
2022-07-26T16:09:29.378Z,99992.47
2022-07-26T16:11:57.143Z,100025.84
2022-07-26T16:14:26.101Z,100001.69
2022-07-26T16:16:54.008Z,99970.75
2022-07-26T16:19:21.630Z,100016.66
2022-07-26T16:21:49.308Z,100029.91
2022-07-26T16:24:16.990Z,100017.66
2022-07-26T16:26:46.787Z,100040.81
2022-07-26T16:29:15.736Z,100023.41
2022-07-26T16:31:45.566Z,100020.31
2022-07-26T16:34:13.972Z,99988.69
2022-07-26T16:36:42.227Z,99939.03
2022-07-26T16:39:10.329Z,99917.94
2022-07-26T16:41:38.160Z,99925.78
2022-07-26T16:44:06.638Z,99936.34
2022-07-26T16:46:34.359Z,99954.19
2022-07-26T16:49:07.392Z,99858.34
2022-07-26T16:51:35.253Z,99906.66
2022-07-26T16:54:02.944Z,99936.25
2022-07-26T16:56:30.657Z,99889.34
2022-07-26T16:58:58.367Z,99890.88
2022-07-26T17:01:26.087Z,99868.25
2022-07-26T17:03:53.809Z,99923.97
2022-07-26T17:06:23.380Z,99927.25
2022-07-26T17:08:51.080Z,99900.38
2022-07-26T17:11:18.701Z,99924.88
2022-07-26T17:13:46.473Z,99876.63
2022-07-26T17:16:14.350Z,99855.84
2022-07-26T17:18:48.495Z,99833.59
2022-07-26T17:21:16.343Z,99849.91
2022-07-26T17:23:45.388Z,99852.78
2022-07-26T17:26:13.184Z,99835.81
2022-07-26T17:28:40.855Z,99852.13
2022-07-26T17:31:08.693Z,99789.28
2022-07-26T17:33:36.441Z,99843.44
2022-07-26T17:36:20.051Z,99852.94
2022-07-26T17:38:49.116Z,99872.13
2022-07-26T17:41:18.490Z,99878.22
2022-07-26T17:43:47.472Z,99914.91
2022-07-26T17:46:15.290Z,99942.44
2022-07-26T17:48:44.052Z,99947.22
2022-07-26T17:51:11.723Z,99968.81
2022-07-26T17:53:39.453Z,99938.38
2022-07-26T17:56:08.578Z,99938.72
2022-07-26T17:58:36.202Z,99925.63
2022-07-26T18:01:04.073Z,99887.06
2022-07-26T18:03:31.695Z,99887.69
2022-07-26T18:05:59.577Z,99900.53
2022-07-26T18:08:28.030Z,99895.59
2022-07-26T18:10:55.844Z,99911.53
2022-07-26T18:13:25.834Z,99900.97
2022-07-26T18:15:54.032Z,99900.22
2022-07-26T18:18:21.706Z,99904.94
2022-07-26T18:20:49.389Z,99885.34
2022-07-26T18:23:17.429Z,99889.22
2022-07-26T18:25:45.170Z,99884.44
2022-07-26T18:28:12.786Z,99879.06
2022-07-26T18:30:42.089Z,99865.13
2022-07-26T18:33:11.961Z,99874.09
2022-07-26T18:35:40.023Z,99879.28
2022-07-26T18:38:08.069Z,99868.84
2022-07-26T18:40:36.790Z,99878.63
2022-07-26T18:43:04.752Z,99870.56
2022-07-26T18:45:32.641Z,99879.63
2022-07-26T18:48:01.649Z,99898.22
2022-07-26T18:50:31.048Z,99895.44
2022-07-26T18:53:00.283Z,99889.34
2022-07-26T18:55:28.172Z,99905.69
2022-07-26T18:57:55.760Z,99917.25
2022-07-26T19:00:25.012Z,99919.91
2022-07-26T19:02:54.103Z,99916.00
2022-07-26T19:05:23.608Z,99928.56
2022-07-26T19:07:51.659Z,99948.09
2022-07-26T19:10:20.102Z,99947.31
2022-07-26T19:12:48.469Z,99956.31
2022-07-26T19:15:17.133Z,99958.56
2022-07-26T19:20:13.789Z,99966.00
2022-07-26T19:22:44.590Z,99983.13
2022-07-26T19:25:14.521Z,99995.34
2022-07-26T19:27:42.193Z,99996.91
2022-07-26T19:30:12.380Z,99992.91
2022-07-26T19:32:40.425Z,99995.34
2022-07-26T19:35:09.509Z,100000.91
2022-07-26T19:37:37.224Z,99999.91
2022-07-26T19:40:07.777Z,100013.00
2022-07-26T19:42:35.384Z,99995.50
2022-07-26T19:45:03.339Z,99980.28
2022-07-26T19:47:31.346Z,99970.88
2022-07-26T19:49:59.041Z,99985.66
2022-07-26T19:52:26.649Z,99971.59
2022-07-26T19:54:54.389Z,99979.72
2022-07-26T19:57:23.363Z,99986.81
2022-07-26T19:59:51.537Z,99987.38
2022-07-26T20:02:19.338Z,99966.91
2022-07-26T20:04:47.178Z,100000.00
2022-07-26T20:07:19.228Z,100018.25
2022-07-26T20:09:47.314Z,100001.56
2022-07-26T20:12:14.968Z,100006.25
2022-07-26T20:14:44.024Z,99987.66
2022-07-26T20:17:13.133Z,99983.47
2022-07-26T20:19:41.349Z,99993.00
2022-07-26T20:22:09.192Z,100004.91
2022-07-26T20:24:38.157Z,99977.91
2022-07-26T20:27:06.278Z,99981.75
2022-07-26T20:29:34.008Z,99978.75
2022-07-26T20:32:03.020Z,99979.16
2022-07-26T20:34:30.808Z,99981.41
2022-07-26T20:36:58.595Z,100007.09
2022-07-26T20:39:27.936Z,99993.44
2022-07-26T20:41:57.115Z,100022.41
2022-07-26T20:44:28.203Z,100011.31
2022-07-26T20:46:56.151Z,100011.81
2022-07-26T20:49:25.297Z,100028.28
2022-07-26T20:51:52.953Z,100037.03
2022-07-26T20:54:20.603Z,100027.66
2022-07-26T20:56:48.250Z,100045.47
2022-07-26T20:59:16.040Z,100053.09
2022-07-26T21:01:44.252Z,100043.06
2022-07-26T21:04:12.264Z,100064.28
2022-07-26T21:06:41.328Z,100101.97
2022-07-26T21:09:09.572Z,100127.84
2022-07-26T21:11:38.168Z,100141.34
2022-07-26T21:14:05.990Z,100164.88
2022-07-26T21:16:33.746Z,100184.84
2022-07-26T21:19:03.129Z,100208.00
2022-07-26T21:21:30.966Z,100223.78
2022-07-26T21:24:00.347Z,100223.53
2022-07-26T21:26:28.277Z,100225.00
2022-07-26T21:28:55.909Z,100230.91
2022-07-26T21:31:23.584Z,100250.97
2022-07-26T21:33:51.607Z,100267.25
2022-07-26T21:36:19.292Z,100271.88
2022-07-26T21:38:46.922Z,100286.34
2022-07-26T21:41:16.029Z,100295.16
2022-07-26T21:43:43.689Z,100298.81
2022-07-26T21:46:13.003Z,100311.06
2022-07-26T21:48:41.012Z,100321.56
2022-07-26T21:51:08.664Z,100338.25
2022-07-26T21:53:36.450Z,100360.03
2022-07-26T21:56:05.576Z,100364.22
2022-07-26T21:58:36.829Z,100365.69
2022-07-26T22:01:06.543Z,100391.19
2022-07-26T22:03:37.356Z,100398.91
2022-07-26T22:06:05.495Z,100389.97
2022-07-26T22:08:33.150Z,100398.69
2022-07-26T22:11:01.251Z,100397.19
2022-07-26T22:13:28.992Z,100431.00
2022-07-26T22:15:58.075Z,100444.97
2022-07-26T22:19:07.755Z,100443.50
2022-07-26T22:21:35.713Z,100469.44
2022-07-26T22:24:03.406Z,100462.97
2022-07-26T22:26:31.917Z,100474.50
2022-07-26T22:32:42.377Z,100485.50
2022-07-26T22:35:10.889Z,100478.50
2022-07-26T22:37:38.605Z,100476.81
2022-07-26T22:40:08.301Z,100434.75
2022-07-26T22:42:36.051Z,100446.63
2022-07-26T22:48:45.934Z,100444.75
2022-07-26T22:51:15.518Z,100441.53
2022-07-26T22:53:43.084Z,100462.47
2022-07-26T22:56:10.818Z,100446.38
2022-07-26T22:58:39.535Z,100441.47
2022-07-26T23:01:07.354Z,100463.88
2022-07-26T23:03:35.016Z,100461.13
2022-07-26T23:06:19.390Z,100470.84
2022-07-26T23:08:55.455Z,100480.78
2022-07-26T23:11:23.086Z,100482.44
2022-07-26T23:13:50.697Z,100484.91
2022-07-26T23:16:29.126Z,100508.56
2022-07-26T23:18:56.866Z,100500.41
2022-07-26T23:21:25.925Z,100511.50
2022-07-26T23:23:53.628Z,100521.91
2022-07-26T23:26:21.291Z,100533.97
2022-07-26T23:28:49.104Z,100531.78
2022-07-26T23:31:16.844Z,100541.03
2022-07-26T23:33:52.850Z,100551.25
2022-07-26T23:36:23.200Z,100568.72
2022-07-26T23:38:52.919Z,100566.84
2022-07-26T23:41:20.970Z,100578.97
2022-07-26T23:43:49.601Z,100596.38
2022-07-26T23:46:17.477Z,100594.00
2022-07-26T23:48:45.371Z,100577.91
2022-07-26T23:51:13.590Z,100583.88
2022-07-26T23:53:41.257Z,100618.22
2022-07-26T23:56:10.635Z,100628.41
2022-07-26T23:58:38.580Z,100628.88
